createdAt,value
2022-11-06T00:05:50.626Z,74.18
2022-11-06T00:11:15.442Z,74.40
2022-11-06T00:16:39.033Z,74.48
2022-11-06T00:22:00.798Z,74.55
2022-11-06T00:27:22.490Z,74.32
2022-11-06T00:32:44.121Z,74.35
2022-11-06T00:38:06.250Z,74.40
2022-11-06T00:43:28.278Z,74.18
2022-11-06T00:48:50.913Z,74.27
2022-11-06T00:54:13.335Z,74.08
2022-11-06T00:59:35.471Z,74.06
2022-11-06T01:04:57.502Z,74.12
2022-11-06T01:10:19.468Z,74.10
2022-11-06T01:15:41.622Z,73.99
2022-11-06T01:21:07.907Z,74.17
2022-11-06T01:26:38.266Z,73.97
2022-11-06T01:32:03.487Z,73.94
2022-11-06T01:37:25.236Z,74.02
2022-11-06T01:42:47.534Z,73.95
2022-11-06T01:48:10.288Z,73.89
2022-11-06T01:53:32.628Z,73.94
2022-11-06T01:58:55.864Z,73.83
2022-11-06T02:04:23.741Z,74.11
2022-11-06T02:09:45.448Z,74.20
2022-11-06T02:15:16.764Z,74.18
2022-11-06T02:20:56.399Z,74.13
2022-11-06T02:26:52.443Z,74.03
2022-11-06T02:32:19.437Z,73.85
2022-11-06T02:37:41.863Z,73.81
2022-11-06T02:43:07.084Z,73.92
2022-11-06T02:48:34.246Z,73.98
2022-11-06T02:54:00.317Z,73.70
2022-11-06T02:59:25.554Z,73.93
2022-11-06T03:04:53.347Z,73.88
2022-11-06T03:10:14.971Z,74.06
2022-11-06T03:16:05.105Z,73.97
2022-11-06T03:21:32.556Z,74.03
2022-11-06T03:26:55.079Z,74.53
2022-11-06T03:32:41.029Z,74.13
2022-11-06T03:38:19.380Z,74.49
2022-11-06T03:43:42.916Z,73.90
2022-11-06T03:49:08.658Z,73.93
2022-11-06T03:55:01.100Z,74.29
2022-11-06T04:00:22.983Z,74.23
2022-11-06T04:05:49.191Z,74.06
2022-11-06T04:11:32.597Z,74.42
2022-11-06T04:16:57.984Z,74.45
2022-11-06T04:22:44.483Z,74.53
2022-11-06T04:28:21.340Z,74.45
2022-11-06T04:33:50.567Z,74.15
2022-11-06T04:39:39.892Z,74.34
2022-11-06T04:45:11.959Z,74.38
2022-11-06T04:50:39.519Z,74.79
2022-11-06T04:56:17.484Z,74.67
2022-11-06T05:01:42.050Z,74.58
2022-11-06T05:07:03.976Z,74.81
2022-11-06T05:12:26.094Z,74.10
2022-11-06T05:17:47.578Z,74.52
2022-11-06T05:23:09.648Z,74.57
2022-11-06T05:28:31.706Z,74.77
2022-11-06T05:33:54.110Z,74.54
2022-11-06T05:39:15.562Z,74.45
2022-11-06T05:44:38.169Z,74.39
2022-11-06T05:49:59.976Z,74.96
2022-11-06T05:55:22.834Z,74.92
2022-11-06T06:00:44.560Z,75.08
2022-11-06T06:06:06.921Z,74.85
2022-11-06T06:11:29.239Z,75.02
2022-11-06T06:16:51.156Z,75.56
2022-11-06T06:22:13.179Z,74.89
2022-11-06T06:27:34.732Z,74.56
2022-11-06T06:32:56.437Z,74.14
2022-11-06T06:38:18.366Z,74.55
2022-11-06T06:43:40.251Z,74.33
2022-11-06T06:49:02.330Z,74.20
2022-11-06T06:54:23.953Z,73.99
2022-11-06T06:59:45.990Z,73.84
2022-11-06T07:05:08.142Z,73.99
2022-11-06T07:10:30.983Z,73.80
2022-11-06T07:15:53.106Z,73.34
2022-11-06T07:21:15.206Z,73.62
2022-11-06T07:26:37.239Z,73.81
2022-11-06T07:31:59.567Z,73.65
2022-11-06T07:37:21.497Z,73.73
2022-11-06T07:42:43.762Z,74.11
2022-11-06T07:48:09.577Z,74.05
2022-11-06T07:53:31.598Z,73.69
2022-11-06T07:58:53.556Z,73.59
2022-11-06T08:04:15.361Z,73.46
2022-11-06T08:09:37.265Z,72.87
2022-11-06T08:14:59.105Z,73.09
2022-11-06T08:20:21.046Z,72.77
2022-11-06T08:25:43.174Z,73.08
2022-11-06T08:31:08.818Z,72.73
2022-11-06T08:36:30.874Z,72.74
2022-11-06T08:41:52.675Z,72.39
2022-11-06T08:47:14.508Z,72.72
2022-11-06T08:52:36.564Z,73.78
2022-11-06T08:57:58.468Z,74.63
2022-11-06T09:03:20.593Z,74.63
2022-11-06T09:08:42.441Z,75.59
2022-11-06T09:14:04.156Z,75.55
2022-11-06T09:19:26.281Z,75.92
2022-11-06T09:25:03.032Z,75.80
2022-11-06T09:30:26.846Z,75.31
2022-11-06T09:35:48.793Z,74.49
2022-11-06T09:41:41.582Z,73.72
2022-11-06T09:47:13.134Z,73.00
2022-11-06T09:52:38.686Z,72.57
2022-11-06T09:58:30.510Z,72.24
2022-11-06T10:03:58.054Z,72.15
2022-11-06T10:09:20.063Z,71.78
2022-11-06T10:14:51.566Z,71.33
2022-11-06T10:20:26.553Z,71.47
2022-11-06T10:25:55.281Z,71.16
2022-11-06T10:31:29.453Z,70.75
2022-11-06T10:36:54.991Z,70.25
2022-11-06T10:42:22.870Z,70.11
2022-11-06T10:47:52.129Z,69.97
2022-11-06T10:53:43.226Z,69.57
2022-11-06T10:59:05.338Z,69.23
2022-11-06T11:04:27.242Z,68.68
2022-11-06T11:09:50.824Z,68.24
2022-11-06T11:15:15.648Z,68.23
2022-11-06T11:20:42.308Z,66.89
2022-11-06T11:26:25.917Z,66.65
2022-11-06T11:31:51.557Z,66.11
2022-11-06T11:37:28.739Z,66.60
2022-11-06T11:42:50.907Z,66.45
2022-11-06T11:48:14.463Z,66.22
2022-11-06T11:53:38.539Z,65.86
2022-11-06T11:59:01.817Z,66.05
2022-11-06T12:04:39.367Z,65.80
2022-11-06T12:10:03.006Z,65.84
2022-11-06T12:15:28.447Z,65.65
2022-11-06T12:21:06.873Z,65.24
2022-11-06T12:26:37.554Z,65.46
2022-11-06T12:32:14.179Z,65.69
2022-11-06T12:37:36.757Z,65.74
2022-11-06T12:43:21.252Z,65.83
2022-11-06T12:49:14.307Z,66.17
2022-11-06T12:54:42.114Z,65.96
2022-11-06T13:00:11.998Z,65.93
2022-11-06T13:05:41.231Z,65.93
2022-11-06T13:11:23.002Z,65.91
2022-11-06T13:16:53.460Z,65.99
2022-11-06T13:22:36.865Z,66.30
2022-11-06T13:28:24.581Z,67.17
2022-11-06T13:33:49.549Z,67.22
2022-11-06T13:39:20.638Z,66.30
2022-11-06T13:44:45.195Z,65.50
2022-11-06T13:50:30.824Z,63.86
2022-11-06T13:56:35.016Z,62.79
2022-11-06T14:02:19.523Z,62.84
2022-11-06T14:07:41.764Z,62.66
2022-11-06T14:13:04.535Z,61.95
2022-11-06T14:18:26.430Z,62.41
2022-11-06T14:23:53.920Z,62.59
2022-11-06T14:29:28.249Z,61.61
2022-11-06T14:34:50.468Z,62.19
2022-11-06T14:40:13.803Z,62.53
2022-11-06T14:45:35.645Z,62.93
2022-11-06T14:50:58.564Z,63.05
2022-11-06T14:56:26.015Z,63.48
2022-11-06T15:02:16.168Z,63.83
2022-11-06T15:08:03.928Z,64.50
2022-11-06T15:13:21.276Z,65.10
2022-11-06T15:18:45.116Z,65.66
2022-11-06T15:24:16.120Z,66.55
2022-11-06T15:29:42.222Z,67.54
2022-11-06T15:35:17.293Z,68.12
2022-11-06T15:40:39.951Z,68.74
2022-11-06T15:46:23.011Z,69.11
2022-11-06T15:52:00.019Z,69.29
2022-11-06T15:57:22.943Z,69.81
2022-11-06T16:02:58.220Z,69.94
2022-11-06T16:08:21.052Z,70.53
2022-11-06T16:13:44.721Z,70.40
2022-11-06T16:19:40.793Z,70.49
2022-11-06T16:25:05.428Z,70.82
2022-11-06T16:30:27.104Z,71.31
2022-11-06T16:35:55.289Z,71.53
2022-11-06T16:41:37.854Z,71.89
2022-11-06T16:47:05.912Z,72.40
2022-11-06T16:52:33.157Z,72.45
2022-11-06T16:57:59.780Z,72.79
2022-11-06T17:03:23.266Z,72.90
2022-11-06T17:08:57.134Z,72.63
2022-11-06T17:14:20.242Z,72.77
2022-11-06T17:19:42.270Z,73.50
2022-11-06T17:25:04.401Z,73.79
2022-11-06T17:30:26.260Z,74.09
2022-11-06T17:35:49.369Z,74.51
2022-11-06T17:41:11.318Z,74.32
2022-11-06T17:46:40.406Z,74.55
2022-11-06T17:52:02.176Z,74.54
2022-11-06T17:57:24.452Z,74.61
2022-11-06T18:03:00.856Z,74.96
2022-11-06T18:08:23.304Z,75.08
2022-11-06T18:13:45.602Z,75.30
2022-11-06T18:19:08.419Z,75.32
2022-11-06T18:24:30.301Z,75.51
2022-11-06T18:29:52.339Z,75.68
2022-11-06T18:35:14.193Z,76.02
2022-11-06T18:40:40.614Z,75.78
2022-11-06T18:46:20.207Z,75.95
2022-11-06T18:51:42.239Z,75.71
2022-11-06T18:57:04.267Z,76.06
2022-11-06T19:02:26.141Z,76.33
2022-11-06T19:07:52.887Z,76.25
2022-11-06T19:13:17.509Z,76.56
2022-11-06T19:18:41.121Z,76.79
2022-11-06T19:24:05.342Z,76.86
2022-11-06T19:29:27.782Z,77.23
2022-11-06T19:34:49.915Z,77.03
2022-11-06T19:40:11.696Z,77.18
2022-11-06T19:45:34.207Z,77.73
2022-11-06T19:51:00.450Z,77.66
2022-11-06T19:56:22.867Z,77.74
2022-11-06T20:01:44.935Z,77.64
2022-11-06T20:07:10.299Z,77.65
2022-11-06T20:12:32.281Z,77.31
2022-11-06T20:17:54.372Z,76.95
2022-11-06T20:23:16.664Z,76.94
2022-11-06T20:28:38.643Z,76.59
2022-11-06T20:34:00.776Z,76.47
2022-11-06T20:39:22.802Z,76.77
2022-11-06T20:44:45.075Z,76.29
2022-11-06T20:50:07.298Z,76.58
2022-11-06T20:55:29.530Z,76.50
2022-11-06T21:00:51.528Z,76.26
2022-11-06T21:06:13.795Z,76.33
2022-11-06T21:11:36.121Z,76.49
2022-11-06T21:16:58.514Z,76.82
2022-11-06T21:22:20.544Z,76.83
2022-11-06T21:27:42.137Z,76.39
2022-11-06T21:33:04.096Z,76.35
2022-11-06T21:38:25.988Z,76.49
2022-11-06T21:43:50.732Z,76.16
2022-11-06T21:49:13.722Z,76.17
2022-11-06T21:54:54.888Z,76.38
2022-11-06T22:00:16.899Z,76.57
2022-11-06T22:05:39.651Z,76.97
2022-11-06T22:11:13.234Z,77.10
2022-11-06T22:16:38.098Z,76.95
2022-11-06T22:21:59.858Z,76.83
2022-11-06T22:27:21.492Z,76.73
2022-11-06T22:32:43.651Z,76.35
2022-11-06T22:38:05.355Z,76.18
2022-11-06T22:43:28.623Z,76.19
2022-11-06T22:48:51.590Z,75.94
2022-11-06T22:54:13.888Z,75.71
2022-11-06T22:59:35.536Z,75.57
2022-11-06T23:04:57.662Z,75.18
2022-11-06T23:10:28.823Z,75.26
2022-11-06T23:15:51.741Z,74.91
2022-11-06T23:21:15.197Z,74.71
2022-11-06T23:26:37.410Z,74.42
2022-11-06T23:32:01.629Z,74.52
2022-11-06T23:37:24.486Z,74.94
2022-11-06T23:42:50.517Z,74.73
2022-11-06T23:48:13.487Z,74.64
2022-11-06T23:53:35.279Z,74.67
2022-11-06T23:58:57.417Z,74.60
